createdAt,value
2023-04-16T00:00:29.520Z,100218.00
2023-04-16T00:02:56.636Z,100310.00
2023-04-16T00:05:23.716Z,100321.00
2023-04-16T00:07:51.607Z,100311.00
2023-04-16T00:10:18.733Z,100305.00
2023-04-16T00:12:45.894Z,100312.00
2023-04-16T00:15:12.816Z,100309.00
2023-04-16T00:17:39.874Z,100315.00
2023-04-16T00:20:08.947Z,100310.00
2023-04-16T00:22:35.914Z,100315.00
2023-04-16T00:25:03.157Z,100317.00
2023-04-16T00:27:30.160Z,100309.00
2023-04-16T00:29:57.134Z,100310.00
2023-04-16T00:32:24.179Z,100316.00
2023-04-16T00:34:51.161Z,100314.00
2023-04-16T00:37:18.076Z,100313.00
2023-04-16T00:39:44.987Z,100309.00
2023-04-16T00:42:11.974Z,100310.00
2023-04-16T00:44:38.845Z,100311.00
2023-04-16T00:47:07.672Z,100311.00
2023-04-16T00:49:36.334Z,100311.00
2023-04-16T00:52:03.456Z,100313.00
2023-04-16T00:54:32.200Z,100315.00
2023-04-16T00:57:00.077Z,100302.00
2023-04-16T00:59:27.613Z,100315.00
2023-04-16T01:01:54.583Z,100319.00
2023-04-16T01:04:21.953Z,100294.00
2023-04-16T01:06:49.052Z,100331.00
2023-04-16T01:09:16.898Z,100313.00
2023-04-16T01:11:43.797Z,100311.00
2023-04-16T01:14:10.731Z,100330.00
2023-04-16T01:16:37.684Z,100332.00
2023-04-16T01:19:04.645Z,100322.00
2023-04-16T01:21:31.533Z,100318.00
2023-04-16T01:24:02.035Z,100324.00
2023-04-16T01:26:28.954Z,100318.00
2023-04-16T01:28:56.270Z,100326.00
2023-04-16T01:31:23.223Z,100320.00
2023-04-16T01:33:50.280Z,100321.00
2023-04-16T01:36:17.472Z,100331.00
2023-04-16T01:38:44.366Z,100332.00
2023-04-16T01:41:11.292Z,100322.00
2023-04-16T01:43:40.197Z,100324.00
2023-04-16T01:46:21.175Z,100326.00
2023-04-16T01:48:48.450Z,100330.00
2023-04-16T01:51:15.404Z,100320.00
2023-04-16T01:53:42.289Z,100331.00
2023-04-16T01:56:09.197Z,100322.00
2023-04-16T01:58:36.110Z,100325.00
2023-04-16T02:01:03.752Z,100324.00
2023-04-16T02:03:31.627Z,100321.00
2023-04-16T02:05:58.674Z,100324.00
2023-04-16T02:08:25.613Z,100335.00
2023-04-16T02:10:53.058Z,100332.00
2023-04-16T02:13:20.033Z,100333.00
2023-04-16T02:15:48.909Z,100326.00
2023-04-16T02:18:16.319Z,100335.00
2023-04-16T02:20:45.760Z,100344.00
2023-04-16T02:23:15.078Z,100340.00
2023-04-16T02:25:44.462Z,100324.00
2023-04-16T02:28:13.769Z,100333.00
2023-04-16T02:30:41.948Z,100335.00
2023-04-16T02:33:11.677Z,100340.00
2023-04-16T02:35:40.469Z,100335.00
2023-04-16T02:38:08.608Z,100300.00
2023-04-16T02:40:35.866Z,100340.00
2023-04-16T02:43:03.246Z,100333.00
2023-04-16T02:45:31.638Z,100333.00
2023-04-16T02:47:59.715Z,100337.00
2023-04-16T02:50:29.789Z,100339.00
2023-04-16T02:52:56.869Z,100340.00
2023-04-16T02:55:23.858Z,100334.00
2023-04-16T02:57:51.971Z,100341.00
2023-04-16T03:00:22.508Z,100336.00
2023-04-16T03:02:49.500Z,100313.00
2023-04-16T03:05:16.549Z,100342.00
2023-04-16T03:07:43.668Z,100347.00
2023-04-16T03:10:11.937Z,100351.00
2023-04-16T03:12:39.229Z,100356.00
2023-04-16T03:15:06.799Z,100345.00
2023-04-16T03:17:33.795Z,100350.00
2023-04-16T03:20:00.979Z,100347.00
2023-04-16T03:22:27.850Z,100344.00
2023-04-16T03:24:54.956Z,100347.00
2023-04-16T03:27:21.788Z,100347.00
2023-04-16T03:29:48.699Z,100355.00
2023-04-16T03:32:15.655Z,100345.00
2023-04-16T03:34:42.629Z,100350.00
2023-04-16T03:37:12.069Z,100353.00
2023-04-16T03:39:39.456Z,100356.00
2023-04-16T03:42:06.563Z,100356.00
2023-04-16T03:44:33.851Z,100364.00
2023-04-16T03:47:00.886Z,100363.00
2023-04-16T03:49:27.839Z,100365.00
2023-04-16T03:51:55.158Z,100366.00
2023-04-16T03:54:22.850Z,100361.00
2023-04-16T03:56:50.049Z,100374.00
2023-04-16T03:59:16.923Z,100364.00
2023-04-16T04:01:43.998Z,100366.00
2023-04-16T04:04:11.200Z,100371.00
2023-04-16T04:06:38.262Z,100375.00
2023-04-16T04:09:05.653Z,100374.00
2023-04-16T04:11:32.646Z,100362.00
2023-04-16T04:13:59.646Z,100377.00
2023-04-16T04:16:26.623Z,100384.00
2023-04-16T04:18:53.543Z,100381.00
2023-04-16T04:21:20.489Z,100375.00
2023-04-16T04:23:47.418Z,100382.00
2023-04-16T04:26:14.319Z,100389.00
2023-04-16T04:28:41.377Z,100391.00
2023-04-16T04:31:08.296Z,100392.00
2023-04-16T04:33:35.463Z,100394.00
2023-04-16T04:36:02.470Z,100391.00
2023-04-16T04:38:30.437Z,100388.00
2023-04-16T04:40:57.651Z,100393.00
2023-04-16T04:43:24.811Z,100405.00
2023-04-16T04:45:51.751Z,100391.00
2023-04-16T04:48:18.699Z,100399.00
2023-04-16T04:50:46.474Z,100396.00
2023-04-16T04:53:15.020Z,100399.00
2023-04-16T04:55:42.076Z,100397.00
2023-04-16T04:58:11.996Z,100399.00
2023-04-16T05:00:39.008Z,100403.00
2023-04-16T05:03:10.889Z,100403.00
2023-04-16T05:05:40.062Z,100406.00
2023-04-16T05:08:07.619Z,100412.00
2023-04-16T05:10:34.517Z,100408.00
2023-04-16T05:13:01.769Z,100407.00
2023-04-16T05:15:28.787Z,100409.00
2023-04-16T05:17:58.524Z,100419.00
2023-04-16T05:20:25.478Z,100417.00
2023-04-16T05:22:52.449Z,100422.00
2023-04-16T05:25:19.366Z,100417.00
2023-04-16T05:27:46.326Z,100429.00
2023-04-16T05:30:13.280Z,100428.00
2023-04-16T05:32:41.409Z,100433.00
2023-04-16T05:35:09.937Z,100436.00
2023-04-16T05:37:36.931Z,100437.00
2023-04-16T05:40:04.190Z,100437.00
2023-04-16T05:42:31.160Z,100426.00
2023-04-16T05:44:58.156Z,100434.00
2023-04-16T05:47:25.506Z,100442.00
2023-04-16T05:49:52.429Z,100443.00
2023-04-16T05:52:19.303Z,100439.00
2023-04-16T05:54:46.198Z,100442.00
2023-04-16T05:57:14.470Z,100434.00
2023-04-16T05:59:42.519Z,100447.00
2023-04-16T06:02:09.644Z,100445.00
2023-04-16T06:04:37.256Z,100446.00
2023-04-16T06:07:04.201Z,100449.00
2023-04-16T06:09:31.282Z,100456.00
2023-04-16T06:11:58.250Z,100449.00
2023-04-16T06:14:25.279Z,100458.00
2023-04-16T06:16:52.135Z,100458.00
2023-04-16T06:19:19.028Z,100457.00
2023-04-16T06:21:46.242Z,100457.00
2023-04-16T06:24:13.358Z,100471.00
2023-04-16T06:26:40.374Z,100464.00
2023-04-16T06:29:07.509Z,100465.00
2023-04-16T06:31:34.815Z,100469.00
2023-04-16T06:34:01.846Z,100471.00
2023-04-16T06:36:29.221Z,100456.00
2023-04-16T06:38:56.109Z,100470.00
2023-04-16T06:41:25.494Z,100470.00
2023-04-16T06:43:52.598Z,100476.00
2023-04-16T06:46:19.654Z,100479.00
2023-04-16T06:48:46.843Z,100482.00
2023-04-16T06:51:13.776Z,100482.00
2023-04-16T06:53:40.987Z,100484.00
2023-04-16T06:56:08.436Z,100486.00
2023-04-16T06:58:35.458Z,100483.00
2023-04-16T07:01:02.782Z,100476.00
2023-04-16T07:03:29.825Z,100486.00
2023-04-16T07:05:57.070Z,100491.00
2023-04-16T07:08:24.698Z,100492.00
2023-04-16T07:10:53.805Z,100498.00
2023-04-16T07:13:21.616Z,100493.00
2023-04-16T07:15:48.612Z,100491.00
2023-04-16T07:18:15.844Z,100479.00
2023-04-16T07:20:42.873Z,100489.00
2023-04-16T07:23:09.815Z,100490.00
2023-04-16T07:25:36.829Z,100499.00
2023-04-16T07:28:04.060Z,100495.00
2023-04-16T07:30:34.263Z,100510.00
2023-04-16T07:33:03.655Z,100500.00
2023-04-16T07:35:32.056Z,100504.00
2023-04-16T07:37:59.016Z,100504.00
2023-04-16T07:40:26.344Z,100502.00
2023-04-16T07:42:53.330Z,100498.00
2023-04-16T07:45:20.303Z,100515.00
2023-04-16T07:47:47.701Z,100508.00
2023-04-16T07:50:14.743Z,100499.00
2023-04-16T07:52:43.723Z,100509.00
2023-04-16T07:55:10.876Z,100517.00
2023-04-16T07:57:38.181Z,100518.00
2023-04-16T08:00:06.114Z,100518.00
2023-04-16T08:02:33.640Z,100520.00
2023-04-16T08:05:00.825Z,100519.00
2023-04-16T08:07:27.816Z,100524.00
2023-04-16T08:09:55.186Z,100526.00
2023-04-16T08:12:22.423Z,100520.00
2023-04-16T08:14:49.713Z,100531.00
2023-04-16T08:17:16.879Z,100529.00
2023-04-16T08:19:47.700Z,100533.00
2023-04-16T08:22:14.940Z,100535.00
2023-04-16T08:24:41.988Z,100537.00
2023-04-16T08:27:18.637Z,100543.00
2023-04-16T08:29:47.713Z,100548.00
2023-04-16T08:32:14.633Z,100543.00
2023-04-16T08:34:42.527Z,100546.00
2023-04-16T08:37:09.945Z,100544.00
2023-04-16T08:39:37.723Z,100541.00
2023-04-16T08:42:11.714Z,100529.00
2023-04-16T08:44:49.597Z,100541.00
2023-04-16T08:47:17.580Z,100553.00
2023-04-16T08:49:46.241Z,100568.00
2023-04-16T08:52:22.266Z,100559.00
2023-04-16T08:55:14.173Z,100564.00
2023-04-16T08:57:58.694Z,100572.00
2023-04-16T09:00:26.577Z,100541.00
2023-04-16T09:02:54.292Z,100566.00
2023-04-16T09:05:25.592Z,100569.00
2023-04-16T09:07:54.634Z,100572.00
2023-04-16T09:10:22.160Z,100579.00
2023-04-16T09:12:49.073Z,100575.00
2023-04-16T09:15:16.055Z,100581.00
2023-04-16T09:17:43.065Z,100588.00
2023-04-16T09:20:11.131Z,100595.00
2023-04-16T09:22:40.269Z,100597.00
2023-04-16T09:25:08.670Z,100593.00
2023-04-16T09:27:37.192Z,100602.00
2023-04-16T09:30:22.953Z,100602.00
2023-04-16T09:32:51.757Z,100605.00
2023-04-16T09:35:20.417Z,100604.00
2023-04-16T09:38:00.859Z,100606.00
2023-04-16T09:40:30.554Z,100607.00
2023-04-16T09:42:58.838Z,100614.00
2023-04-16T09:45:26.251Z,100609.00
2023-04-16T09:47:53.241Z,100609.00
2023-04-16T09:50:21.089Z,100615.00
2023-04-16T09:52:51.660Z,100617.00
2023-04-16T09:55:27.402Z,100623.00
2023-04-16T09:58:01.072Z,100628.00
2023-04-16T10:00:30.698Z,100627.00
2023-04-16T10:03:05.816Z,100612.00
2023-04-16T10:05:33.043Z,100625.00
2023-04-16T10:08:03.320Z,100631.00
2023-04-16T10:10:30.808Z,100640.00
2023-04-16T10:12:58.430Z,100632.00
2023-04-16T10:15:28.039Z,100634.00
2023-04-16T10:17:57.064Z,100634.00
2023-04-16T10:20:25.274Z,100642.00
2023-04-16T10:22:54.336Z,100647.00
2023-04-16T10:25:22.943Z,100644.00
2023-04-16T10:27:51.134Z,100640.00
2023-04-16T10:30:19.471Z,100643.00
2023-04-16T10:32:47.071Z,100642.00
2023-04-16T10:35:21.337Z,100640.00
2023-04-16T10:37:48.339Z,100649.00
2023-04-16T10:40:27.548Z,100647.00
2023-04-16T10:43:03.656Z,100661.00
2023-04-16T10:45:32.864Z,100662.00
2023-04-16T10:48:04.342Z,100658.00
2023-04-16T10:50:38.495Z,100654.00
2023-04-16T10:53:19.249Z,100667.00
2023-04-16T10:56:05.582Z,100668.00
2023-04-16T10:58:36.296Z,100668.00
2023-04-16T11:01:16.821Z,100680.00
2023-04-16T11:03:47.314Z,100681.00
2023-04-16T11:06:26.188Z,100679.00
2023-04-16T11:08:55.282Z,100686.00
2023-04-16T11:11:23.236Z,100685.00
2023-04-16T11:13:54.648Z,100687.00
2023-04-16T11:16:21.624Z,100681.00
2023-04-16T11:18:50.872Z,100682.00
2023-04-16T11:21:19.781Z,100691.00
2023-04-16T11:23:49.927Z,100686.00
2023-04-16T11:26:28.935Z,100691.00
2023-04-16T11:28:57.132Z,100682.00
2023-04-16T11:31:24.904Z,100694.00
2023-04-16T11:33:51.968Z,100690.00
2023-04-16T11:36:18.973Z,100693.00
2023-04-16T11:38:47.068Z,100697.00
2023-04-16T11:41:21.808Z,100695.00
2023-04-16T11:43:48.832Z,100694.00
2023-04-16T11:46:26.899Z,100703.00
2023-04-16T11:48:56.203Z,100694.00
2023-04-16T11:51:23.859Z,100700.00
2023-04-16T11:53:54.960Z,100666.00
2023-04-16T11:56:34.487Z,100707.00
2023-04-16T11:59:11.160Z,100709.00
2023-04-16T12:01:41.301Z,100713.00
2023-04-16T12:04:09.191Z,100710.00
2023-04-16T12:06:36.568Z,100710.00
2023-04-16T12:09:27.133Z,100707.00
2023-04-16T12:11:54.258Z,100706.00
2023-04-16T12:14:23.799Z,100714.00
2023-04-16T12:16:50.896Z,100706.00
2023-04-16T12:19:18.906Z,100713.00
2023-04-16T12:21:50.766Z,100709.00
2023-04-16T12:24:24.174Z,100718.00
2023-04-16T12:27:03.244Z,100722.00
2023-04-16T12:29:30.311Z,100712.00
2023-04-16T12:31:57.884Z,100713.00
2023-04-16T12:34:30.662Z,100711.00
2023-04-16T12:37:12.322Z,100712.00
2023-04-16T12:39:39.275Z,100712.00
2023-04-16T12:42:09.866Z,100711.00
2023-04-16T12:44:36.850Z,100716.00
2023-04-16T12:47:05.616Z,100716.00
2023-04-16T12:49:32.770Z,100715.00
2023-04-16T12:52:04.559Z,100712.00
2023-04-16T12:54:48.577Z,100718.00
2023-04-16T12:57:16.647Z,100715.00
2023-04-16T12:59:43.605Z,100722.00
2023-04-16T13:02:10.638Z,100719.00
2023-04-16T13:04:37.798Z,100724.00
2023-04-16T13:07:04.860Z,100721.00
2023-04-16T13:09:31.725Z,100723.00
2023-04-16T13:12:02.356Z,100722.00
2023-04-16T13:14:29.277Z,100721.00
2023-04-16T13:16:56.190Z,100731.00
2023-04-16T13:19:23.141Z,100734.00
2023-04-16T13:21:50.670Z,100736.00
2023-04-16T13:24:17.697Z,100725.00
2023-04-16T13:26:44.785Z,100737.00
2023-04-16T13:29:11.976Z,100740.00
2023-04-16T13:31:39.245Z,100735.00
2023-04-16T13:34:06.308Z,100741.00
2023-04-16T13:36:34.034Z,100743.00
2023-04-16T13:39:01.082Z,100741.00
2023-04-16T13:41:27.994Z,100734.00
2023-04-16T13:43:55.005Z,100739.00
2023-04-16T13:46:22.136Z,100741.00
2023-04-16T13:48:49.163Z,100737.00
2023-04-16T13:51:16.092Z,100737.00
2023-04-16T13:53:42.999Z,100739.00
2023-04-16T13:56:11.148Z,100739.00
2023-04-16T13:58:38.888Z,100736.00
2023-04-16T14:01:05.939Z,100741.00
2023-04-16T14:03:36.024Z,100740.00
2023-04-16T14:06:04.023Z,100731.00
2023-04-16T14:08:31.394Z,100746.00
2023-04-16T14:10:58.859Z,100750.00
2023-04-16T14:13:26.166Z,100748.00
2023-04-16T14:15:56.604Z,100754.00
2023-04-16T14:18:23.551Z,100745.00
2023-04-16T14:20:50.691Z,100748.00
2023-04-16T14:23:17.964Z,100746.00
2023-04-16T14:25:44.946Z,100743.00
2023-04-16T14:28:13.050Z,100748.00
2023-04-16T14:30:41.976Z,100753.00
2023-04-16T14:33:08.863Z,100749.00
2023-04-16T14:35:36.076Z,100760.00
2023-04-16T14:38:03.157Z,100739.00
2023-04-16T14:40:30.187Z,100753.00
2023-04-16T14:42:57.122Z,100761.00
2023-04-16T14:45:28.998Z,100749.00
2023-04-16T14:47:56.024Z,100755.00
2023-04-16T14:50:23.331Z,100765.00
2023-04-16T14:52:53.246Z,100761.00
2023-04-16T14:55:20.949Z,100766.00
2023-04-16T14:57:47.843Z,100773.00
2023-04-16T15:00:17.593Z,100771.00
2023-04-16T15:02:46.165Z,100774.00
2023-04-16T15:05:13.229Z,100774.00
2023-04-16T15:07:40.398Z,100777.00
2023-04-16T15:10:09.643Z,100785.00
2023-04-16T15:12:37.880Z,100756.00
2023-04-16T15:15:09.541Z,100784.00
2023-04-16T15:17:36.659Z,100788.00
2023-04-16T15:20:08.152Z,100786.00
2023-04-16T15:22:35.376Z,100763.00
2023-04-16T15:25:02.585Z,100790.00
2023-04-16T15:27:29.480Z,100788.00
2023-04-16T15:29:56.735Z,100782.00
2023-04-16T15:32:23.740Z,100797.00
2023-04-16T15:34:50.723Z,100789.00
2023-04-16T15:37:17.650Z,100803.00
2023-04-16T15:39:44.630Z,100800.00
2023-04-16T15:42:11.916Z,100808.00
2023-04-16T15:44:38.880Z,100803.00
2023-04-16T15:47:07.881Z,100813.00
2023-04-16T15:49:35.560Z,100800.00
2023-04-16T15:52:02.884Z,100815.00
2023-04-16T15:54:30.909Z,100782.00
2023-04-16T15:56:58.918Z,100816.00
2023-04-16T15:59:28.745Z,100807.00
2023-04-16T16:01:55.818Z,100811.00
2023-04-16T16:04:23.408Z,100815.00
2023-04-16T16:06:51.134Z,100818.00
2023-04-16T16:09:25.393Z,100809.00
2023-04-16T16:11:56.938Z,100822.00
2023-04-16T16:14:23.866Z,100822.00
2023-04-16T16:16:51.290Z,100829.00
2023-04-16T16:19:18.209Z,100832.00
2023-04-16T16:21:45.284Z,100834.00
2023-04-16T16:24:12.354Z,100832.00
2023-04-16T16:26:40.076Z,100847.00
2023-04-16T16:29:07.293Z,100839.00
2023-04-16T16:31:34.605Z,100851.00
2023-04-16T16:34:01.687Z,100848.00
2023-04-16T16:36:30.175Z,100859.00
2023-04-16T16:38:57.361Z,100851.00
2023-04-16T16:41:24.502Z,100854.00
2023-04-16T16:43:55.753Z,100856.00
2023-04-16T16:46:23.064Z,100861.00
2023-04-16T16:48:50.029Z,100852.00
2023-04-16T16:51:18.906Z,100853.00
2023-04-16T16:53:47.493Z,100856.00
2023-04-16T16:56:14.465Z,100857.00
2023-04-16T16:58:41.809Z,100859.00
2023-04-16T17:01:08.906Z,100860.00
2023-04-16T17:03:35.964Z,100866.00
2023-04-16T17:06:03.174Z,100865.00
2023-04-16T17:08:30.160Z,100872.00
2023-04-16T17:10:57.112Z,100871.00
2023-04-16T17:13:25.262Z,100863.00
2023-04-16T17:15:52.168Z,100876.00
2023-04-16T17:18:19.044Z,100874.00
2023-04-16T17:20:45.951Z,100873.00
2023-04-16T17:23:12.999Z,100875.00
2023-04-16T17:25:39.992Z,100871.00
2023-04-16T17:28:07.050Z,100866.00
2023-04-16T17:30:34.317Z,100859.00
2023-04-16T17:33:03.608Z,100872.00
2023-04-16T17:35:31.297Z,100875.00
2023-04-16T17:37:58.353Z,100875.00
2023-04-16T17:40:25.548Z,100880.00
2023-04-16T17:42:52.516Z,100879.00
2023-04-16T17:45:22.275Z,100875.00
2023-04-16T17:47:49.208Z,100879.00
2023-04-16T17:50:16.425Z,100887.00
2023-04-16T17:52:43.919Z,100882.00
2023-04-16T17:55:11.925Z,100889.00
2023-04-16T17:57:38.818Z,100889.00
2023-04-16T18:00:09.866Z,100883.00
2023-04-16T18:02:39.536Z,100885.00
2023-04-16T18:05:07.902Z,100892.00
2023-04-16T18:07:35.628Z,100900.00
2023-04-16T18:10:02.539Z,100899.00
2023-04-16T18:12:29.467Z,100901.00
2023-04-16T18:14:56.426Z,100902.00
2023-04-16T18:17:23.499Z,100902.00
2023-04-16T18:19:50.475Z,100906.00
2023-04-16T18:22:17.396Z,100911.00
2023-04-16T18:24:44.248Z,100913.00
2023-04-16T18:27:11.911Z,100908.00
2023-04-16T18:29:40.554Z,100914.00
2023-04-16T18:32:11.695Z,100917.00
2023-04-16T18:34:39.437Z,100920.00
2023-04-16T18:37:07.068Z,100924.00
2023-04-16T18:39:34.429Z,100925.00
2023-04-16T18:42:01.740Z,100927.00
2023-04-16T18:44:30.149Z,100919.00
2023-04-16T18:46:57.178Z,100928.00
2023-04-16T18:49:24.547Z,100921.00
2023-04-16T18:51:51.562Z,100922.00
2023-04-16T18:54:20.432Z,100911.00
2023-04-16T18:56:47.633Z,100923.00
2023-04-16T18:59:14.614Z,100924.00
2023-04-16T19:01:41.560Z,100925.00
2023-04-16T19:04:08.522Z,100921.00
2023-04-16T19:06:35.769Z,100926.00
2023-04-16T19:09:02.710Z,100927.00
2023-04-16T19:11:29.721Z,100923.00
2023-04-16T19:13:57.632Z,100927.00
2023-04-16T19:16:24.677Z,100932.00
2023-04-16T19:18:51.852Z,100935.00
2023-04-16T19:21:18.719Z,100939.00
2023-04-16T19:23:45.917Z,100930.00
2023-04-16T19:26:12.784Z,100926.00
2023-04-16T19:28:39.977Z,100932.00
2023-04-16T19:31:06.944Z,100923.00
2023-04-16T19:33:34.296Z,100935.00
2023-04-16T19:36:02.503Z,100931.00
2023-04-16T19:38:31.797Z,100927.00
2023-04-16T19:40:58.748Z,100933.00
2023-04-16T19:43:25.789Z,100925.00
2023-04-16T19:45:54.297Z,100932.00
2023-04-16T19:48:21.494Z,100937.00
2023-04-16T19:50:48.836Z,100939.00
2023-04-16T19:53:17.192Z,100939.00
2023-04-16T19:55:44.259Z,100942.00
2023-04-16T19:58:11.295Z,100917.00
2023-04-16T20:00:41.151Z,100949.00
2023-04-16T20:03:08.550Z,100938.00
2023-04-16T20:05:35.645Z,100936.00
2023-04-16T20:08:02.580Z,100937.00
2023-04-16T20:10:31.477Z,100926.00
2023-04-16T20:12:58.780Z,100927.00
2023-04-16T20:15:25.862Z,100939.00
2023-04-16T20:17:53.426Z,100928.00
2023-04-16T20:20:23.576Z,100934.00
2023-04-16T20:22:50.828Z,100929.00
2023-04-16T20:25:19.293Z,100900.00
2023-04-16T20:27:46.570Z,100898.00
2023-04-16T20:30:14.195Z,100928.00
2023-04-16T20:32:41.235Z,100931.00
2023-04-16T20:35:10.975Z,100926.00
2023-04-16T20:37:38.715Z,100921.00
2023-04-16T20:40:10.722Z,100923.00
2023-04-16T20:42:37.834Z,100930.00
2023-04-16T20:45:05.680Z,100923.00
2023-04-16T20:47:34.879Z,100929.00
2023-04-16T20:50:02.944Z,100926.00
2023-04-16T20:52:29.915Z,100930.00
2023-04-16T20:54:56.846Z,100924.00
2023-04-16T20:57:23.783Z,100927.00
2023-04-16T20:59:51.015Z,100928.00
2023-04-16T21:02:18.032Z,100935.00
2023-04-16T21:04:45.219Z,100929.00
2023-04-16T21:07:12.244Z,100931.00
2023-04-16T21:09:39.154Z,100934.00
2023-04-16T21:12:06.404Z,100935.00
2023-04-16T21:14:33.350Z,100927.00
2023-04-16T21:17:00.345Z,100930.00
2023-04-16T21:19:27.227Z,100928.00
2023-04-16T21:21:54.145Z,100929.00
2023-04-16T21:24:21.082Z,100933.00
2023-04-16T21:26:48.340Z,100919.00
2023-04-16T21:29:15.340Z,100924.00
2023-04-16T21:31:42.360Z,100931.00
2023-04-16T21:34:09.282Z,100934.00
2023-04-16T21:36:36.251Z,100923.00
2023-04-16T21:39:03.341Z,100929.00
2023-04-16T21:41:30.224Z,100926.00
2023-04-16T21:43:57.104Z,100931.00
2023-04-16T21:46:25.437Z,100937.00
2023-04-16T21:48:52.411Z,100943.00
2023-04-16T21:51:20.098Z,100939.00
2023-04-16T21:53:47.004Z,100941.00
2023-04-16T21:56:14.847Z,100930.00
2023-04-16T21:58:41.737Z,100938.00
2023-04-16T22:01:10.868Z,100944.00
2023-04-16T22:03:40.494Z,100949.00
2023-04-16T22:06:08.024Z,100953.00
2023-04-16T22:08:34.904Z,100947.00
2023-04-16T22:11:03.139Z,100964.00
2023-04-16T22:13:33.924Z,100956.00
2023-04-16T22:16:03.914Z,100959.00
2023-04-16T22:18:33.700Z,100962.00
2023-04-16T22:21:01.044Z,100960.00
2023-04-16T22:23:28.046Z,100953.00
2023-04-16T22:25:56.224Z,100953.00
2023-04-16T22:28:23.723Z,100950.00
2023-04-16T22:30:51.181Z,100956.00
2023-04-16T22:33:18.267Z,100960.00
2023-04-16T22:35:45.605Z,100959.00
2023-04-16T22:38:12.560Z,100963.00
2023-04-16T22:40:39.464Z,100959.00
2023-04-16T22:43:06.373Z,100961.00
2023-04-16T22:45:33.367Z,100968.00
2023-04-16T22:48:00.340Z,100967.00
2023-04-16T22:50:28.531Z,100963.00
2023-04-16T22:52:55.543Z,100966.00
2023-04-16T22:55:22.672Z,100966.00
2023-04-16T22:57:49.532Z,100964.00
2023-04-16T23:00:17.950Z,100963.00
2023-04-16T23:02:45.293Z,100965.00
2023-04-16T23:05:12.359Z,100964.00
2023-04-16T23:07:39.320Z,100969.00
2023-04-16T23:10:08.632Z,100962.00
2023-04-16T23:12:39.211Z,100977.00
2023-04-16T23:15:07.048Z,100971.00
2023-04-16T23:17:35.096Z,100956.00
2023-04-16T23:20:02.398Z,100970.00
2023-04-16T23:22:29.472Z,100967.00
2023-04-16T23:24:57.087Z,100973.00
2023-04-16T23:27:24.054Z,100975.00
2023-04-16T23:29:50.915Z,100974.00
2023-04-16T23:32:18.002Z,100975.00
2023-04-16T23:34:45.016Z,100966.00
2023-04-16T23:37:11.939Z,100968.00
2023-04-16T23:39:38.856Z,100971.00
2023-04-16T23:42:06.042Z,100968.00
2023-04-16T23:44:33.251Z,100965.00
2023-04-16T23:47:00.334Z,100953.00
2023-04-16T23:49:27.407Z,100966.00
2023-04-16T23:51:54.306Z,100965.00
2023-04-16T23:54:21.731Z,100963.00
2023-04-16T23:56:48.840Z,100974.00
2023-04-16T23:59:16.777Z,100970.00
